Time;durP1;ratioP1;P1;durP2;ratioP2;P2;SDS_P1;SDS_P2;PMS_P1;PMS_P2;Temp;Humidity;BMP_temperature;BMP_pressure;BME280_temperature;BME280_humidity;BME280_pressure;Samples;Min_cycle;Max_cycle;Signal;HPM_P1;HPM_P2
2023/09/15 00:00:39;;;;;;;6.65;3.17;;;19.20;98.10;;;;;;5035446;28;20033;-68
2023/09/15 00:03:05;;;;;;;3.42;3.13;;;19.10;98.50;;;;;;5034933;28;20021;-68
2023/09/15 00:05:33;;;;;;;5.68;3.08;;;19.10;98.20;;;;;;5035119;28;20517;-68
2023/09/15 00:08:03;;;;;;;3.97;2.90;;;19.00;98.70;;;;;;5035045;28;20025;-68
2023/09/15 00:10:29;;;;;;;4.53;3.10;;;19.00;98.50;;;;;;5034973;28;20359;-69
2023/09/15 00:12:55;;;;;;;6.00;3.08;;;19.00;98.60;;;;;;5034874;28;20096;-68
2023/09/15 00:15:21;;;;;;;4.63;3.53;;;19.00;98.50;;;;;;5034224;28;20381;-69
2023/09/15 00:17:47;;;;;;;3.45;2.97;;;19.00;98.60;;;;;;5035039;28;20525;-69
2023/09/15 00:20:13;;;;;;;6.60;4.07;;;18.90;98.70;;;;;;5034725;28;20021;-69
2023/09/15 00:22:48;;;;;;;5.07;3.30;;;18.90;98.80;;;;;;5053364;28;20061;-69
2023/09/15 00:25:20;;;;;;;4.60;3.28;;;18.90;98.90;;;;;;5054296;28;20025;-69
2023/09/15 00:27:48;;;;;;;4.20;3.40;;;18.90;99.00;;;;;;5054498;28;20064;-68
2023/09/15 00:30:14;;;;;;;4.60;3.88;;;18.90;98.90;;;;;;5054336;28;20025;-69
2023/09/15 00:32:40;;;;;;;4.75;3.55;;;18.80;99.40;;;;;;5054265;28;20033;-68
2023/09/15 00:35:06;;;;;;;4.57;3.50;;;18.80;99.80;;;;;;5053984;28;20147;-69
2023/09/15 00:37:31;;;;;;;8.35;3.55;;;18.80;99.50;;;;;;5054302;28;20036;-67
2023/09/15 00:39:57;;;;;;;4.28;3.65;;;18.80;99.40;;;;;;5054282;28;20058;-69
2023/09/15 00:42:25;;;;;;;6.10;3.63;;;18.80;99.70;;;;;;5053859;28;20410;-69
2023/09/15 00:44:51;;;;;;;5.20;3.22;;;18.70;99.30;;;;;;5054254;28;20048;-69
2023/09/15 00:47:17;;;;;;;5.25;3.50;;;18.70;99.20;;;;;;5053722;28;20037;-69
2023/09/15 00:49:46;;;;;;;4.50;3.92;;;18.70;99.20;;;;;;5054111;28;20029;-69
2023/09/15 00:52:13;;;;;;;4.43;3.78;;;18.70;99.30;;;;;;5053501;28;20047;-69
2023/09/15 00:54:40;;;;;;;4.25;3.38;;;18.60;99.90;;;;;;5053862;28;20083;-69
2023/09/15 00:57:07;;;;;;;7.55;4.25;;;18.50;99.80;;;;;;5053378;28;20056;-69
2023/09/15 00:59:33;;;;;;;5.25;3.97;;;18.50;99.90;;;;;;5053955;28;20060;-69
2023/09/15 01:02:00;;;;;;;6.43;4.03;;;18.50;99.90;;;;;;5053411;28;20032;-68
2023/09/15 01:04:29;;;;;;;6.18;3.85;;;18.50;99.90;;;;;;5052868;28;20079;-70
2023/09/15 01:06:57;;;;;;;5.93;3.70;;;18.50;99.90;;;;;;5053432;28;20432;-68
2023/09/15 01:09:23;;;;;;;8.43;4.38;;;18.40;99.90;;;;;;5052979;28;20091;-68
2023/09/15 01:11:51;;;;;;;5.72;3.95;;;18.50;99.90;;;;;;5045006;28;20017;-69
2023/09/15 01:14:17;;;;;;;4.85;3.65;;;18.40;99.90;;;;;;5033023;28;20079;-69
2023/09/15 01:16:49;;;;;;;4.57;3.80;;;18.40;99.90;;;;;;5015667;28;20374;-69
2023/09/15 01:19:54;;;;;;;4.32;3.92;;;18.40;99.90;;;;;;5033059;28;20032;-70
2023/09/15 01:22:35;;;;;;;4.45;3.55;;;18.40;99.90;;;;;;4933367;29;20032;-70
2023/09/15 01:25:29;;;;;;;6.22;3.70;;;18.30;99.90;;;;;;4934964;29;20106;-69
2023/09/15 01:28:19;;;;;;;5.57;4.40;;;18.30;99.90;;;;;;4933682;29;20449;-69
2023/09/15 01:30:49;;;;;;;6.30;4.07;;;18.30;99.90;;;;;;4933923;29;20486;-69
2023/09/15 01:33:18;;;;;;;8.82;3.85;;;18.30;99.90;;;;;;4933184;29;20103;-69
2023/09/15 01:35:44;;;;;;;7.22;4.20;;;18.30;99.90;;;;;;4933687;29;20032;-69
2023/09/15 01:38:09;;;;;;;6.28;4.38;;;18.30;99.90;;;;;;4933220;29;20111;-70
2023/09/15 01:40:37;;;;;;;5.32;4.25;;;18.30;99.90;;;;;;4917887;29;20078;-68
2023/09/15 01:43:03;;;;;;;6.28;4.13;;;18.30;99.90;;;;;;4933659;29;20028;-69
2023/09/15 01:45:29;;;;;;;5.53;3.83;;;18.20;99.90;;;;;;4933214;29;20087;-69
2023/09/15 01:47:55;;;;;;;5.57;4.38;;;18.20;99.90;;;;;;4933531;29;20438;-68
2023/09/15 01:50:22;;;;;;;4.78;4.28;;;18.20;99.90;;;;;;4933153;29;20133;-69
2023/09/15 01:52:48;;;;;;;9.45;4.25;;;18.10;99.90;;;;;;4972572;28;20046;-68
2023/09/15 01:55:15;;;;;;;4.72;4.18;;;18.10;99.90;;;;;;5032577;28;20026;-69
2023/09/15 01:57:41;;;;;;;5.40;4.35;;;18.10;99.90;;;;;;5033155;28;20052;-68
2023/09/15 02:00:08;;;;;;;4.93;4.13;;;18.10;99.90;;;;;;5033048;28;20458;-68
2023/09/15 02:02:33;;;;;;;6.10;4.60;;;18.10;99.90;;;;;;5032433;28;20109;-68
2023/09/15 02:04:59;;;;;;;6.57;4.80;;;18.00;99.90;;;;;;5032930;28;20429;-69
2023/09/15 02:07:25;;;;;;;7.97;5.07;;;18.00;99.90;;;;;;5032498;28;20118;-68
2023/09/15 02:09:50;;;;;;;6.15;4.70;;;18.00;99.90;;;;;;5032618;28;20367;-68
2023/09/15 02:12:16;;;;;;;7.90;4.32;;;18.00;99.90;;;;;;5032066;28;20044;-70
2023/09/15 02:14:41;;;;;;;5.38;4.85;;;18.00;99.90;;;;;;5032474;28;20061;-68
2023/09/15 02:17:07;;;;;;;6.63;5.18;;;18.10;99.90;;;;;;5032678;28;20060;-68
2023/09/15 02:19:33;;;;;;;6.90;4.72;;;18.10;99.90;;;;;;5032187;28;20101;-69
2023/09/15 02:21:59;;;;;;;6.45;5.05;;;18.00;99.90;;;;;;5014799;28;20029;-68
2023/09/15 02:24:26;;;;;;;6.20;4.60;;;18.10;99.90;;;;;;5031874;28;20028;-68
2023/09/15 02:26:51;;;;;;;5.38;4.80;;;18.00;99.90;;;;;;5040584;28;20021;-69
2023/09/15 02:29:17;;;;;;;6.78;5.05;;;18.00;99.90;;;;;;5052149;28;20021;-68
2023/09/15 02:31:43;;;;;;;5.60;5.00;;;18.00;99.90;;;;;;5052430;28;20458;-68
2023/09/15 02:34:08;;;;;;;7.22;4.90;;;18.00;99.90;;;;;;5052118;28;20060;-68
2023/09/15 02:36:34;;;;;;;8.07;5.32;;;17.90;99.90;;;;;;5051858;28;20461;-68
2023/09/15 02:39:00;;;;;;;7.45;6.03;;;18.00;99.90;;;;;;5052473;28;20473;-68
2023/09/15 02:41:25;;;;;;;7.93;5.50;;;17.90;99.90;;;;;;5051807;28;20458;-68
2023/09/15 02:43:51;;;;;;;6.22;5.20;;;17.80;99.90;;;;;;5052144;28;20486;-68
2023/09/15 02:46:16;;;;;;;6.25;4.63;;;17.80;99.90;;;;;;5052016;28;20029;-68
2023/09/15 02:48:42;;;;;;;6.25;4.95;;;17.80;99.90;;;;;;5034482;28;20049;-68
2023/09/15 02:51:08;;;;;;;10.88;6.45;;;17.80;99.90;;;;;;5052569;28;20053;-68
2023/09/15 02:53:33;;;;;;;8.68;6.10;;;17.80;99.90;;;;;;5051816;28;20037;-67
2023/09/15 02:56:04;;;;;;;7.88;5.65;;;17.80;99.90;;;;;;5051893;28;20458;-70
2023/09/15 02:58:30;;;;;;;;;;;17.80;99.90;;;;;;5052420;28;20028;-69
2023/09/15 03:00:56;;;;;;;8.13;5.97;;;17.80;99.90;;;;;;5052172;28;19905;-69
2023/09/15 03:03:24;;;;;;;7.53;5.95;;;17.70;99.90;;;;;;5051520;28;20033;-69
2023/09/15 03:06:02;;;;;;;6.95;5.57;;;17.80;99.90;;;;;;5052478;28;20024;-69
2023/09/15 03:08:28;;;;;;;10.23;6.22;;;17.70;99.90;;;;;;5052092;28;20347;-69
2023/09/15 03:10:54;;;;;;;10.15;6.20;;;17.70;99.90;;;;;;5052133;28;20031;-69
2023/09/15 03:13:20;;;;;;;8.45;6.47;;;17.70;99.90;;;;;;5049072;28;20146;-70
2023/09/15 03:15:46;;;;;;;6.45;5.75;;;17.60;99.90;;;;;;5031563;28;20032;-69
2023/09/15 03:18:11;;;;;;;7.20;5.97;;;17.60;99.90;;;;;;5052204;28;20462;-69
2023/09/15 03:20:37;;;;;;;7.97;6.43;;;17.50;99.90;;;;;;5051668;28;20040;-69
2023/09/15 03:23:03;;;;;;;8.43;5.90;;;17.50;99.90;;;;;;5051797;28;20079;-69
2023/09/15 03:25:28;;;;;;;8.20;6.45;;;17.50;99.90;;;;;;5049299;28;20025;-69
2023/09/15 03:27:54;;;;;;;7.95;6.05;;;17.60;99.90;;;;;;5035407;28;20025;-69
2023/09/15 03:30:20;;;;;;;8.85;6.65;;;17.60;99.90;;;;;;5035014;28;20489;-68
2023/09/15 03:32:47;;;;;;;10.10;6.47;;;17.60;99.90;;;;;;5035270;28;20460;-69
2023/09/15 03:35:13;;;;;;;9.68;6.78;;;17.60;99.90;;;;;;5035523;28;20057;-69
2023/09/15 03:37:39;;;;;;;8.45;6.40;;;17.50;99.90;;;;;;5035016;28;20026;-68
2023/09/15 03:40:11;;;;;;;7.18;5.82;;;17.50;99.90;;;;;;5035895;28;20029;-69
2023/09/15 03:42:37;;;;;;;7.28;6.15;;;17.50;99.90;;;;;;5035118;28;20117;-69
2023/09/15 03:45:04;;;;;;;8.88;6.60;;;17.50;99.90;;;;;;5035502;28;20025;-69
2023/09/15 03:47:30;;;;;;;9.63;6.35;;;17.50;99.90;;;;;;5034858;28;20026;-70
2023/09/15 03:49:55;;;;;;;9.18;6.85;;;17.50;99.90;;;;;;5034991;28;20159;-68
2023/09/15 03:52:21;;;;;;;6.68;6.00;;;17.50;99.90;;;;;;5034683;28;20026;-68
2023/09/15 03:54:47;;;;;;;7.75;6.78;;;17.50;99.90;;;;;;5034945;28;20036;-69
2023/09/15 03:57:13;;;;;;;11.48;7.05;;;17.50;99.90;;;;;;5034781;28;20053;-69
2023/09/15 03:59:38;;;;;;;10.75;6.97;;;17.50;99.90;;;;;;5034745;28;20042;-70
2023/09/15 04:02:04;;;;;;;6.82;6.05;;;17.50;99.90;;;;;;5035160;28;20033;-69
2023/09/15 04:04:30;;;;;;;8.38;6.53;;;17.40;99.90;;;;;;5034642;28;20025;-69
2023/09/15 04:06:55;;;;;;;10.43;6.45;;;17.40;99.90;;;;;;5035223;28;20033;-68
2023/09/15 04:09:24;;;;;;;8.98;6.40;;;17.40;99.90;;;;;;5034520;28;20026;-70
2023/09/15 04:11:57;;;;;;;11.73;7.22;;;17.30;99.90;;;;;;5034753;28;20057;-68
2023/09/15 04:14:23;;;;;;;9.15;6.10;;;17.30;99.90;;;;;;5034765;28;20029;-69
2023/09/15 04:16:48;;;;;;;10.18;6.30;;;17.30;99.90;;;;;;5034848;28;20421;-69
2023/09/15 04:19:14;;;;;;;12.43;7.15;;;17.30;99.90;;;;;;5034808;28;20451;-69
2023/09/15 04:21:39;;;;;;;9.82;6.50;;;17.30;99.90;;;;;;5034071;28;20036;-69
2023/09/15 04:24:07;;;;;;;10.13;6.65;;;17.30;99.90;;;;;;5034670;28;20449;-69
2023/09/15 04:26:33;;;;;;;10.15;6.97;;;17.30;99.90;;;;;;5037101;28;20030;-69
2023/09/15 04:28:58;;;;;;;8.63;6.22;;;17.30;99.90;;;;;;5034317;28;20029;-69
2023/09/15 04:31:24;;;;;;;8.23;6.28;;;17.20;99.90;;;;;;5034181;28;20029;-69
2023/09/15 04:33:50;;;;;;;10.10;6.15;;;17.30;99.90;;;;;;5034377;28;20060;-68
2023/09/15 04:36:16;;;;;;;11.35;6.65;;;17.30;99.90;;;;;;5034244;28;20104;-68
2023/09/15 04:38:42;;;;;;;9.68;7.00;;;17.30;99.90;;;;;;5033584;28;20044;-68
2023/09/15 04:41:08;;;;;;;10.50;6.80;;;17.30;99.90;;;;;;5034790;28;20021;-69
2023/09/15 04:43:33;;;;;;;8.15;6.88;;;17.30;99.90;;;;;;5034196;28;20033;-69
2023/09/15 04:45:59;;;;;;;9.43;6.72;;;17.30;99.90;;;;;;5034448;28;20374;-68
2023/09/15 04:48:25;;;;;;;11.85;6.88;;;17.30;99.90;;;;;;5033760;28;20052;-69
2023/09/15 04:50:50;;;;;;;7.53;6.70;;;17.30;99.90;;;;;;5034100;28;20029;-68
2023/09/15 04:53:16;;;;;;;7.63;6.50;;;17.30;99.90;;;;;;5033741;28;20500;-69
2023/09/15 04:55:42;;;;;;;13.73;6.55;;;17.30;99.90;;;;;;5033306;28;20109;-69
2023/09/15 04:58:07;;;;;;;8.40;6.10;;;17.30;99.90;;;;;;5034308;28;20156;-70
2023/09/15 05:00:34;;;;;;;8.55;6.28;;;17.40;99.90;;;;;;5015762;28;20033;-70
2023/09/15 05:03:02;;;;;;;8.50;6.57;;;17.40;99.90;;;;;;5033725;28;20033;-68
2023/09/15 05:05:28;;;;;;;9.13;6.28;;;17.40;99.90;;;;;;5033304;28;20025;-70
2023/09/15 05:07:54;;;;;;;8.80;6.55;;;17.40;99.90;;;;;;5033719;28;20021;-68
2023/09/15 05:10:20;;;;;;;9.40;7.47;;;17.40;99.90;;;;;;5033622;28;20076;-69
2023/09/15 05:12:45;;;;;;;8.27;6.47;;;17.40;99.90;;;;;;5032952;28;20512;-69
2023/09/15 05:15:11;;;;;;;8.57;7.03;;;17.50;99.90;;;;;;5033583;28;20071;-69
2023/09/15 05:17:38;;;;;;;8.73;6.22;;;17.40;99.90;;;;;;5033083;28;20160;-68
2023/09/15 05:20:04;;;;;;;9.23;6.38;;;17.40;99.90;;;;;;5033625;28;20026;-68
2023/09/15 05:22:29;;;;;;;8.15;5.65;;;17.40;99.90;;;;;;5017614;28;20022;-70
2023/09/15 05:24:55;;;;;;;7.82;6.47;;;17.40;99.90;;;;;;5033388;28;20029;-70
2023/09/15 05:27:21;;;;;;;9.32;6.00;;;17.40;99.90;;;;;;5033079;28;20030;-69
2023/09/15 05:29:47;;;;;;;7.43;6.60;;;17.40;99.90;;;;;;5048985;28;20425;-69
2023/09/15 05:32:13;;;;;;;8.88;5.70;;;17.40;99.90;;;;;;5053042;28;20033;-69
2023/09/15 05:34:38;;;;;;;7.30;5.50;;;17.50;99.90;;;;;;5052522;28;20159;-70
2023/09/15 05:37:04;;;;;;;10.77;6.57;;;17.50;99.90;;;;;;5052786;28;20036;-69
2023/09/15 05:39:33;;;;;;;10.18;6.10;;;17.50;99.90;;;;;;5052433;28;20029;-70
2023/09/15 05:41:59;;;;;;;10.80;6.45;;;17.50;99.90;;;;;;5052826;28;20021;-69
2023/09/15 05:44:24;;;;;;;9.02;6.30;;;17.50;99.90;;;;;;5053112;28;20040;-69
2023/09/15 05:46:52;;;;;;;10.52;6.22;;;17.60;99.90;;;;;;5052641;28;20025;-69
2023/09/15 05:49:18;;;;;;;9.93;5.90;;;17.60;99.90;;;;;;5052020;28;20033;-69
2023/09/15 05:51:43;;;;;;;9.82;6.10;;;17.70;99.90;;;;;;5052307;28;20051;-69
2023/09/15 05:54:09;;;;;;;8.27;6.05;;;17.70;99.90;;;;;;5052742;28;20045;-69
2023/09/15 05:56:35;;;;;;;6.40;5.72;;;17.80;99.90;;;;;;5052388;28;20067;-70
2023/09/15 05:59:01;;;;;;;8.43;5.95;;;17.70;99.90;;;;;;5052755;28;20056;-70
2023/09/15 06:01:26;;;;;;;8.25;5.68;;;17.70;99.90;;;;;;5052680;28;20067;-69
2023/09/15 06:03:52;;;;;;;11.55;6.00;;;17.80;99.90;;;;;;5052494;28;20036;-69
2023/09/15 06:06:18;;;;;;;8.23;5.95;;;17.80;99.90;;;;;;5052707;28;20075;-68
2023/09/15 06:08:44;;;;;;;7.28;5.90;;;17.80;99.90;;;;;;5052025;28;20466;-69
2023/09/15 06:11:10;;;;;;;9.05;5.35;;;17.90;99.90;;;;;;5052471;28;20036;-69
2023/09/15 06:13:36;;;;;;;8.93;5.88;;;17.90;99.90;;;;;;5051972;28;20037;-69
2023/09/15 06:16:05;;;;;;;7.47;5.63;;;17.90;99.90;;;;;;5052594;28;20028;-69
2023/09/15 06:18:31;;;;;;;8.80;5.47;;;17.90;99.80;;;;;;5052566;28;20033;-69
2023/09/15 06:20:57;;;;;;;7.72;5.70;;;18.00;99.80;;;;;;5052607;28;20370;-70
2023/09/15 06:23:24;;;;;;;9.13;5.70;;;18.10;99.30;;;;;;5051160;28;20052;-70
2023/09/15 06:25:51;;;;;;;7.72;5.28;;;18.10;99.10;;;;;;5032197;28;20030;-70
2023/09/15 06:28:16;;;;;;;8.18;5.30;;;18.20;99.10;;;;;;5032568;28;20044;-69
2023/09/15 06:30:42;;;;;;;9.05;5.38;;;18.20;99.00;;;;;;5014490;28;20030;-69
2023/09/15 06:33:08;;;;;;;7.45;5.78;;;18.30;98.50;;;;;;5032751;28;20454;-70
2023/09/15 06:35:34;;;;;;;14.07;5.82;;;18.40;98.30;;;;;;5031904;28;20459;-69
2023/09/15 06:38:00;;;;;;;12.55;5.55;;;18.40;97.60;;;;;;5032453;28;20076;-69
2023/09/15 06:40:25;;;;;;;8.93;5.30;;;18.40;97.40;;;;;;5032345;28;20033;-68
2023/09/15 06:42:51;;;;;;;8.30;5.30;;;18.50;97.10;;;;;;5031718;28;20045;-69
2023/09/15 06:45:17;;;;;;;11.38;6.20;;;18.60;96.90;;;;;;5014979;28;20129;-69
2023/09/15 06:47:42;;;;;;;7.18;5.43;;;18.70;96.60;;;;;;5031746;28;20116;-69
2023/09/15 06:50:08;;;;;;;8.40;5.13;;;18.90;96.30;;;;;;5032670;28;20086;-69
2023/09/15 06:52:34;;;;;;;8.32;5.30;;;19.10;96.10;;;;;;5031946;28;20038;-70
2023/09/15 06:54:59;;;;;;;7.85;5.57;;;19.30;95.50;;;;;;5032369;28;20351;-69
2023/09/15 06:57:25;;;;;;;8.02;5.47;;;19.70;95.00;;;;;;5032260;28;20474;-69
2023/09/15 06:59:52;;;;;;;10.13;5.07;;;19.90;93.60;;;;;;5032341;28;20701;-69
2023/09/15 07:02:17;;;;;;;9.15;5.22;;;20.30;92.50;;;;;;5036087;28;20036;-68
2023/09/15 07:04:43;;;;;;;8.45;4.95;;;20.60;90.90;;;;;;5035917;28;20021;-67
2023/09/15 07:07:09;;;;;;;8.00;5.20;;;21.10;90.30;;;;;;5035848;28;20112;-68
2023/09/15 07:09:35;;;;;;;7.03;5.32;;;21.60;88.00;;;;;;5035598;28;20064;-68
2023/09/15 07:12:01;;;;;;;5.50;4.60;;;22.20;84.70;;;;;;5035877;28;20087;-69
2023/09/15 07:14:27;;;;;;;6.47;4.97;;;23.20;80.10;;;;;;5035868;28;20462;-69
2023/09/15 07:16:53;;;;;;;10.55;4.63;;;24.30;74.30;;;;;;5035475;28;20122;-69
2023/09/15 07:19:18;;;;;;;6.35;4.03;;;25.20;69.70;;;;;;5037841;28;20021;-69
2023/09/15 07:21:44;;;;;;;6.65;4.47;;;26.00;65.60;;;;;;5035132;28;20024;-69
2023/09/15 07:24:11;;;;;;;6.50;3.83;;;26.60;64.30;;;;;;5035738;28;20021;-69
2023/09/15 07:26:37;;;;;;;5.95;4.13;;;27.20;61.30;;;;;;5035240;28;20462;-70
2023/09/15 07:29:05;;;;;;;6.22;4.60;;;27.90;59.40;;;;;;5035700;28;20031;-69
2023/09/15 07:31:34;;;;;;;6.88;4.40;;;28.50;56.40;;;;;;5046492;28;20029;-69
2023/09/15 07:34:00;;;;;;;7.03;3.88;;;29.10;55.20;;;;;;5055477;28;20033;-69
2023/09/15 07:36:26;;;;;;;6.07;3.80;;;29.70;52.90;;;;;;5055320;28;20036;-69
2023/09/15 07:38:52;;;;;;;6.60;4.10;;;30.20;51.90;;;;;;5054798;28;20032;-69
2023/09/15 07:41:18;;;;;;;8.10;4.18;;;30.40;50.30;;;;;;5055314;28;20029;-69
2023/09/15 07:43:44;;;;;;;5.82;3.97;;;30.70;49.80;;;;;;5054651;28;20067;-70
2023/09/15 07:46:13;;;;;;;7.38;4.18;;;31.10;48.80;;;;;;5020668;28;20039;-70
2023/09/15 07:48:39;;;;;;;4.95;3.78;;;31.60;47.40;;;;;;5054726;28;20044;-70
2023/09/15 07:51:05;;;;;;;9.07;4.05;;;31.90;46.10;;;;;;5055206;28;20029;-69
2023/09/15 07:53:31;;;;;;;8.35;3.70;;;32.40;45.90;;;;;;5055071;28;20033;-70
2023/09/15 07:55:56;;;;;;;5.20;3.60;;;32.80;44.40;;;;;;5054036;28;20040;-70
2023/09/15 07:58:23;;;;;;;6.53;3.53;;;33.10;43.90;;;;;;5054982;28;20032;-69
2023/09/15 08:00:48;;;;;;;4.82;3.50;;;33.30;43.10;;;;;;5054434;28;20029;-69
2023/09/15 08:03:14;;;;;;;8.55;3.95;;;33.50;42.50;;;;;;5037011;28;20497;-69
2023/09/15 08:05:39;;;;;;;5.28;3.70;;;33.60;42.50;;;;;;5054790;28;20488;-69
2023/09/15 08:08:05;;;;;;;5.22;3.70;;;33.90;41.90;;;;;;5055099;28;20095;-69
2023/09/15 08:10:32;;;;;;;4.80;3.38;;;33.80;40.90;;;;;;5054401;28;20044;-69
2023/09/15 08:12:57;;;;;;;5.75;3.60;;;34.10;40.70;;;;;;5053386;28;20037;-69
2023/09/15 08:15:23;;;;;;;7.47;3.90;;;34.20;40.20;;;;;;5054718;28;20403;-68
2023/09/15 08:17:49;;;;;;;6.85;3.63;;;34.60;40.10;;;;;;5054260;28;20374;-68
2023/09/15 08:20:15;;;;;;;7.07;3.75;;;34.70;39.80;;;;;;5054572;28;20032;-68
2023/09/15 08:22:41;;;;;;;5.90;4.18;;;34.80;39.80;;;;;;5054173;28;20044;-68
2023/09/15 08:25:09;;;;;;;5.22;3.97;;;34.40;39.00;;;;;;5051144;28;20029;-68
2023/09/15 08:27:35;;;;;;;5.85;4.18;;;34.30;39.60;;;;;;5054302;28;20112;-68
2023/09/15 08:30:00;;;;;;;7.00;4.63;;;33.80;40.40;;;;;;5036249;28;20539;-68
2023/09/15 08:32:26;;;;;;;6.75;4.47;;;32.60;40.40;;;;;;5054178;28;20044;-68
2023/09/15 08:34:53;;;;;;;9.48;4.38;;;30.90;43.20;;;;;;5053851;28;20040;-68
2023/09/15 08:37:19;;;;;;;7.82;4.05;;;30.60;45.20;;;;;;5054193;28;20033;-68
2023/09/15 08:39:45;;;;;;;7.78;4.55;;;30.00;46.20;;;;;;5053849;28;20029;-70
2023/09/15 08:42:20;;;;;;;10.13;4.97;;;29.70;46.30;;;;;;5054324;28;20033;-70
2023/09/15 08:44:47;;;;;;;9.13;4.47;;;29.20;47.20;;;;;;5053646;28;20032;-70
2023/09/15 08:47:13;;;;;;;5.28;4.15;;;28.80;49.20;;;;;;5053599;28;20362;-68
2023/09/15 08:49:39;;;;;;;9.07;4.80;;;28.90;49.70;;;;;;5054189;28;20025;-69
2023/09/15 08:52:06;;;;;;;5.65;4.57;;;28.90;48.80;;;;;;5053785;28;20025;-70
2023/09/15 08:54:32;;;;;;;6.22;4.10;;;28.40;49.10;;;;;;5053791;28;20113;-68
2023/09/15 08:56:58;;;;;;;8.32;4.25;;;27.90;50.40;;;;;;5052935;28;20056;-69
2023/09/15 08:59:24;;;;;;;9.18;4.70;;;28.00;50.70;;;;;;5053735;28;20029;-69
2023/09/15 09:01:51;;;;;;;8.35;4.75;;;27.70;51.10;;;;;;5053086;28;20021;-68
2023/09/15 09:04:16;;;;;;;7.55;4.47;;;27.40;51.00;;;;;;5053602;28;20056;-69
2023/09/15 09:06:43;;;;;;;7.22;5.15;;;27.40;52.20;;;;;;5053662;28;20413;-69
2023/09/15 09:09:09;;;;;;;11.25;5.00;;;27.20;51.80;;;;;;5053521;28;20029;-69
2023/09/15 09:11:35;;;;;;;6.78;4.45;;;27.00;53.40;;;;;;5053565;28;20037;-69
2023/09/15 09:14:01;;;;;;;8.55;5.03;;;26.90;53.70;;;;;;5052587;28;20670;-69
2023/09/15 09:16:28;;;;;;;5.43;4.80;;;26.60;54.30;;;;;;5053380;28;20067;-68
2023/09/15 09:18:58;;;;;;;6.63;4.65;;;26.60;54.80;;;;;;5049338;28;20021;-69
2023/09/15 09:21:28;;;;;;;6.80;4.90;;;26.60;54.20;;;;;;5053610;28;20079;-69
2023/09/15 09:23:57;;;;;;;10.50;4.32;;;26.50;54.20;;;;;;5053033;28;20029;-69
2023/09/15 09:26:23;;;;;;;7.57;4.55;;;26.50;54.60;;;;;;5053331;28;20029;-69
2023/09/15 09:28:54;;;;;;;7.40;5.13;;;26.40;54.40;;;;;;5052654;28;20040;-69
2023/09/15 09:31:21;;;;;;;6.75;4.45;;;26.30;54.00;;;;;;5053446;28;20032;-69
2023/09/15 09:33:46;;;;;;;8.90;5.10;;;26.40;55.20;;;;;;5023115;28;20047;-68
2023/09/15 09:36:16;;;;;;;6.68;4.72;;;26.40;55.10;;;;;;5033303;28;20030;-70
2023/09/15 09:38:43;;;;;;;12.35;4.68;;;26.40;55.20;;;;;;5033250;28;20025;-69
2023/09/15 09:41:10;;;;;;;6.70;4.45;;;26.50;56.00;;;;;;5033090;28;20371;-69
2023/09/15 09:43:39;;;;;;;8.25;5.00;;;26.60;55.30;;;;;;5015441;28;20037;-69
2023/09/15 09:46:06;;;;;;;6.28;5.28;;;26.40;53.80;;;;;;5032645;28;20067;-69
2023/09/15 09:48:35;;;;;;;9.73;5.57;;;26.20;54.80;;;;;;5032950;28;20517;-69
2023/09/15 09:51:05;;;;;;;6.78;4.82;;;26.20;54.60;;;;;;5032546;28;20386;-70
2023/09/15 09:53:33;;;;;;;6.45;4.00;;;26.30;56.00;;;;;;5032526;28;20474;-68
2023/09/15 09:56:07;;;;;;;5.95;4.53;;;26.30;55.50;;;;;;5032162;28;20045;-69
2023/09/15 09:58:35;;;;;;;5.15;4.13;;;26.30;55.60;;;;;;5032806;28;20030;-69
2023/09/15 10:01:00;;;;;;;5.80;4.05;;;26.30;54.90;;;;;;5032345;28;20088;-70
2023/09/15 10:03:26;;;;;;;5.88;4.15;;;26.40;56.20;;;;;;5032806;28;20029;-69
2023/09/15 10:05:52;;;;;;;8.15;3.88;;;26.70;55.10;;;;;;5032483;28;20386;-68
2023/09/15 10:08:19;;;;;;;6.50;4.18;;;26.70;54.90;;;;;;5032964;28;20363;-69
2023/09/15 10:10:46;;;;;;;4.65;4.13;;;26.90;53.90;;;;;;5032639;28;20028;-69
2023/09/15 10:13:13;;;;;;;5.05;4.10;;;26.80;53.90;;;;;;5032484;28;20033;-69
2023/09/15 10:15:43;;;;;;;5.47;3.80;;;27.00;54.20;;;;;;5037389;28;20489;-69
2023/09/15 10:18:14;;;;;;;5.50;3.85;;;27.20;53.90;;;;;;5052166;28;20052;-69
2023/09/15 10:20:43;;;;;;;9.38;4.03;;;27.30;52.80;;;;;;5052535;28;20126;-69
2023/09/15 10:23:10;;;;;;;6.40;3.95;;;27.40;52.70;;;;;;5051976;28;20028;-70
2023/09/15 10:25:44;;;;;;;7.72;4.07;;;27.40;52.70;;;;;;5052565;28;20048;-69
2023/09/15 10:28:11;;;;;;;10.05;4.47;;;27.20;52.90;;;;;;5052026;28;20025;-70
2023/09/15 10:30:38;;;;;;;6.20;4.10;;;27.00;51.80;;;;;;5052540;28;20021;-69
2023/09/15 10:33:07;;;;;;;7.57;3.95;;;26.90;52.70;;;;;;5033912;28;20033;-68
2023/09/15 10:35:33;;;;;;;6.50;4.22;;;26.90;53.00;;;;;;5053923;28;20021;-69
2023/09/15 10:38:03;;;;;;;5.85;3.88;;;26.90;53.10;;;;;;5056315;28;20029;-69
2023/09/15 10:40:49;;;;;;;8.88;4.53;;;26.90;53.00;;;;;;5056572;28;20033;-69
2023/09/15 10:43:18;;;;;;;8.23;4.60;;;26.90;53.60;;;;;;5056111;28;20537;-69
2023/09/15 10:45:55;;;;;;;4.90;3.70;;;26.80;54.10;;;;;;5056433;28;20036;-68
2023/09/15 10:48:21;;;;;;;5.78;4.18;;;26.80;53.50;;;;;;5056312;28;20120;-69
2023/09/15 10:50:47;;;;;;;5.78;4.25;;;26.70;54.80;;;;;;5056187;28;20033;-68
2023/09/15 10:53:14;;;;;;;5.82;4.60;;;26.90;54.20;;;;;;5055343;28;20587;-69
2023/09/15 10:55:40;;;;;;;6.65;4.57;;;27.00;53.70;;;;;;5055934;28;20033;-68
2023/09/15 10:58:07;;;;;;;6.00;4.45;;;26.80;53.30;;;;;;5055574;28;20053;-69
2023/09/15 11:00:33;;;;;;;7.53;3.90;;;26.70;53.10;;;;;;5037894;28;20029;-68
2023/09/15 11:02:59;;;;;;;6.63;4.20;;;26.60;52.90;;;;;;5055586;28;20036;-69
2023/09/15 11:05:28;;;;;;;5.97;4.60;;;26.60;53.20;;;;;;5056065;28;20033;-69
2023/09/15 11:07:58;;;;;;;3.67;2.92;;;26.40;52.60;;;;;;5055462;28;20025;-69
2023/09/15 11:10:29;;;;;;;6.32;3.75;;;26.40;53.90;;;;;;5055679;28;20485;-68
2023/09/15 11:13:00;;;;;;;8.63;3.92;;;26.60;53.60;;;;;;5055515;28;20497;-68
2023/09/15 11:15:26;;;;;;;;;;;26.60;51.80;;;;;;5056428;28;20024;-68
2023/09/15 11:17:52;;;;;;;6.32;3.25;;;26.80;51.60;;;;;;5055298;28;20369;-69
2023/09/15 11:20:18;;;;;;;4.13;2.92;;;26.70;51.30;;;;;;5055614;28;20036;-68
2023/09/15 11:22:44;;;;;;;7.07;3.17;;;26.70;52.00;;;;;;5052296;28;20025;-69
2023/09/15 11:25:10;;;;;;;5.88;3.38;;;26.60;50.30;;;;;;5054996;28;20440;-68
2023/09/15 11:27:36;;;;;;;4.57;3.13;;;26.50;51.00;;;;;;5055454;28;20474;-69
2023/09/15 11:30:03;;;;;;;7.00;2.97;;;26.30;51.20;;;;;;5055426;28;20040;-68
2023/09/15 11:32:29;;;;;;;7.05;2.95;;;26.20;52.60;;;;;;5053886;28;20112;-68
2023/09/15 11:34:54;;;;;;;3.70;2.80;;;26.30;52.10;;;;;;5055060;28;20061;-69
2023/09/15 11:37:20;;;;;;;4.55;3.38;;;26.20;51.60;;;;;;5055379;28;20469;-69
2023/09/15 11:39:50;;;;;;;5.55;2.88;;;25.90;51.60;;;;;;5055542;28;20029;-68
2023/09/15 11:42:16;;;;;;;4.80;2.60;;;26.10;52.60;;;;;;5055137;28;20021;-69
2023/09/15 11:44:43;;;;;;;3.60;2.65;;;26.30;52.70;;;;;;5055371;28;20103;-69
2023/09/15 11:47:11;;;;;;;5.53;2.72;;;26.40;51.90;;;;;;5053455;28;20025;-69
2023/09/15 11:49:37;;;;;;;6.30;2.55;;;26.60;51.20;;;;;;5037367;28;20386;-69
2023/09/15 11:52:03;;;;;;;3.67;2.50;;;26.80;50.90;;;;;;5054446;28;20036;-68
2023/09/15 11:54:30;;;;;;;5.80;2.80;;;27.00;50.30;;;;;;5055127;28;20484;-67
2023/09/15 11:56:59;;;;;;;9.73;2.58;;;27.10;48.60;;;;;;5054751;28;20053;-69
2023/09/15 11:59:25;;;;;;;13.32;3.03;;;27.20;49.00;;;;;;5055136;28;20112;-68
2023/09/15 12:02:01;;;;;;;4.40;2.55;;;27.20;47.90;;;;;;5054968;28;20501;-68
2023/09/15 12:04:28;;;;;;;3.53;1.85;;;27.10;46.30;;;;;;5054989;28;20116;-68
2023/09/15 12:06:54;;;;;;;4.35;2.20;;;27.00;46.90;;;;;;5054948;28;20021;-69
2023/09/15 12:09:22;;;;;;;2.95;2.03;;;27.10;47.60;;;;;;5054567;28;20469;-68
2023/09/15 12:11:48;;;;;;;4.00;2.00;;;27.20;47.60;;;;;;5055099;28;20033;-68
2023/09/15 12:14:15;;;;;;;4.05;2.50;;;27.10;46.60;;;;;;5054055;28;20041;-68
2023/09/15 12:16:45;;;;;;;4.70;2.72;;;26.90;46.20;;;;;;5038587;28;20040;-68
2023/09/15 12:19:11;;;;;;;;;;;26.80;47.40;;;;;;5034839;28;20033;-68
2023/09/15 12:21:37;;;;;;;4.20;2.53;;;26.60;48.40;;;;;;5034714;28;19909;-68
2023/09/15 12:24:10;;;;;;;3.75;2.85;;;26.40;49.30;;;;;;5034136;28;20037;-69
2023/09/15 12:26:38;;;;;;;4.03;2.20;;;26.20;49.50;;;;;;5034565;28;20037;-69
2023/09/15 12:29:04;;;;;;;4.45;2.45;;;26.10;49.50;;;;;;5034038;28;20025;-69
2023/09/15 12:31:40;;;;;;;3.50;2.38;;;26.20;50.70;;;;;;5034299;28;20029;-69
2023/09/15 12:34:05;;;;;;;4.40;2.53;;;26.20;50.20;;;;;;5034132;28;20038;-69
2023/09/15 12:36:32;;;;;;;5.75;3.40;;;26.20;50.30;;;;;;5034264;28;20052;-68
2023/09/15 12:38:57;;;;;;;5.45;2.65;;;26.20;50.20;;;;;;5033656;28;20039;-70
2023/09/15 12:41:23;;;;;;;4.53;2.80;;;26.00;50.80;;;;;;5034259;28;20460;-69
2023/09/15 12:43:49;;;;;;;6.05;3.28;;;26.00;51.50;;;;;;5033703;28;20608;-69